createdAt,value
2019-05-10T00:00:08.041Z,19.57
2019-05-10T00:02:55.024Z,23.43
2019-05-10T00:05:42.189Z,19.10
2019-05-10T00:08:28.965Z,17.23
2019-05-10T00:11:32.529Z,16.70
2019-05-10T00:17:21.961Z,19.77
2019-05-10T00:20:01.116Z,12.30
2019-05-10T00:23:16.664Z,14.47
2019-05-10T00:25:51.218Z,14.40
2019-05-10T00:28:36.838Z,13.43
2019-05-10T00:31:17.777Z,14.27
2019-05-10T00:35:15.875Z,14.03
2019-05-10T00:40:09.213Z,13.87
2019-05-10T00:42:42.266Z,14.63
2019-05-10T00:45:37.177Z,11.17
2019-05-10T00:48:18.498Z,15.73
2019-05-10T00:53:51.764Z,10.37
2019-05-10T00:56:26.606Z,14.40
2019-05-10T01:02:47.755Z,10.33
2019-05-10T01:05:42.799Z,14.50
2019-05-10T01:15:25.369Z,11.73
2019-05-10T01:17:55.105Z,8.70
2019-05-10T01:27:03.359Z,8.23
2019-05-10T01:29:32.283Z,7.47
2019-05-10T01:32:01.463Z,6.87
2019-05-10T01:34:30.271Z,10.33
2019-05-10T01:36:59.813Z,6.97
2019-05-10T01:39:28.695Z,9.83
2019-05-10T01:41:57.536Z,7.77
2019-05-10T01:44:26.348Z,6.00
2019-05-10T01:46:56.673Z,8.40
2019-05-10T01:49:25.535Z,8.30
2019-05-10T01:51:54.537Z,9.33
2019-05-10T01:54:27.357Z,6.77
2019-05-10T01:56:56.331Z,10.67
2019-05-10T01:59:25.399Z,8.00
2019-05-10T02:01:56.843Z,8.13
2019-05-10T02:04:25.689Z,11.63
2019-05-10T02:06:54.761Z,8.27
2019-05-10T02:09:23.793Z,11.73
2019-05-10T02:11:54.903Z,9.70
2019-05-10T02:14:23.968Z,10.77
2019-05-10T02:16:53.010Z,9.83
2019-05-10T02:19:21.979Z,12.20
2019-05-10T02:21:52.807Z,8.93
2019-05-10T02:24:21.781Z,10.10
2019-05-10T02:26:50.940Z,12.90
2019-05-10T02:29:19.805Z,10.37
2019-05-10T02:31:49.988Z,9.30
2019-05-10T02:34:19.081Z,7.13
2019-05-10T02:36:50.247Z,7.17
2019-05-10T02:39:21.496Z,11.03
2019-05-10T02:41:51.542Z,6.17
2019-05-10T02:44:20.546Z,10.10
2019-05-10T02:46:49.503Z,8.33
2019-05-10T02:49:18.298Z,7.27
2019-05-10T02:51:47.193Z,7.57
2019-05-10T02:54:16.449Z,8.80
2019-05-10T02:56:45.919Z,9.37
2019-05-10T02:59:14.940Z,6.57
2019-05-10T03:01:45.974Z,8.70
2019-05-10T03:04:15.053Z,6.73
2019-05-10T03:06:45.326Z,7.20
2019-05-10T03:09:14.568Z,7.43
2019-05-10T03:11:50.175Z,8.07
2019-05-10T03:14:20.880Z,7.87
2019-05-10T03:16:51.915Z,8.17
2019-05-10T03:19:21.623Z,7.47
2019-05-10T03:22:12.795Z,8.30
2019-05-10T03:24:41.612Z,7.83
2019-05-10T03:27:10.557Z,7.47
2019-05-10T03:29:39.492Z,10.73
2019-05-10T03:32:08.480Z,9.60
2019-05-10T03:34:37.442Z,7.00
2019-05-10T03:37:06.520Z,9.17
2019-05-10T03:39:35.608Z,8.87
2019-05-10T03:42:05.830Z,8.10
2019-05-10T03:44:34.825Z,8.63
2019-05-10T03:47:03.889Z,8.43
2019-05-10T03:49:33.004Z,8.83
2019-05-10T03:52:02.086Z,10.50
2019-05-10T03:54:31.156Z,7.23
2019-05-10T03:57:13.088Z,7.73
2019-05-10T03:59:33.590Z,4.07
2019-05-10T04:02:02.387Z,8.63
2019-05-10T04:04:31.393Z,9.37
2019-05-10T04:07:00.232Z,9.53
2019-05-10T04:09:29.053Z,6.17
2019-05-10T04:11:57.809Z,5.57
2019-05-10T04:14:26.536Z,11.97
2019-05-10T04:16:55.295Z,10.77
2019-05-10T04:19:24.038Z,6.70
2019-05-10T04:21:52.820Z,8.10
2019-05-10T04:24:21.574Z,8.87
2019-05-10T04:26:50.317Z,9.73
2019-05-10T04:29:19.073Z,9.43
2019-05-10T04:31:47.839Z,11.13
2019-05-10T04:34:16.581Z,6.93
2019-05-10T04:36:45.334Z,8.50
2019-05-10T04:39:14.101Z,12.23
2019-05-10T04:41:43.059Z,11.17
2019-05-10T04:44:11.821Z,8.63
2019-05-10T04:46:40.557Z,9.93
2019-05-10T04:49:09.651Z,12.50
2019-05-10T04:51:38.419Z,8.97
2019-05-10T04:54:07.195Z,9.17
2019-05-10T04:56:35.942Z,8.90
2019-05-10T04:59:04.851Z,9.67
2019-05-10T05:01:34.770Z,10.50
2019-05-10T05:04:03.582Z,11.83
2019-05-10T05:06:32.334Z,9.07
2019-05-10T05:09:01.236Z,8.73
2019-05-10T05:11:30.000Z,10.50
2019-05-10T05:13:58.860Z,9.67
2019-05-10T05:16:27.619Z,8.40
2019-05-10T05:18:56.480Z,10.47
2019-05-10T05:21:25.257Z,7.50
2019-05-10T05:23:54.107Z,11.13
2019-05-10T05:26:22.852Z,9.53
2019-05-10T05:28:51.679Z,13.00
2019-05-10T05:31:20.407Z,8.43
2019-05-10T05:33:49.324Z,11.23
2019-05-10T05:36:18.100Z,12.70
2019-05-10T05:38:49.442Z,11.60
2019-05-10T05:41:17.340Z,7.77
2019-05-10T05:43:48.005Z,12.03
2019-05-10T05:46:16.622Z,11.27
2019-05-10T05:48:45.371Z,11.33
2019-05-10T05:51:14.132Z,14.43
2019-05-10T05:53:44.712Z,9.47
2019-05-10T05:56:14.646Z,10.23
2019-05-10T05:58:44.404Z,11.80
2019-05-10T06:01:24.716Z,9.10
2019-05-10T06:03:44.742Z,8.53
2019-05-10T06:06:21.755Z,7.23
2019-05-10T06:08:44.030Z,12.03
2019-05-10T06:11:12.777Z,10.83
2019-05-10T06:13:41.603Z,8.40
2019-05-10T06:16:12.906Z,10.17
2019-05-10T06:18:41.781Z,9.63
2019-05-10T06:21:11.400Z,13.97
2019-05-10T06:23:40.155Z,8.37
2019-05-10T06:26:21.021Z,11.23
2019-05-10T06:31:10.311Z,6.30
2019-05-10T06:33:45.042Z,8.07
2019-05-10T06:36:12.459Z,11.40
2019-05-10T06:38:41.598Z,7.60
2019-05-10T06:41:16.932Z,13.10
2019-05-10T06:43:45.561Z,8.30
2019-05-10T06:46:14.548Z,12.90
2019-05-10T06:48:43.455Z,8.30
2019-05-10T06:51:12.555Z,13.23
2019-05-10T06:53:52.079Z,11.43
2019-05-10T06:56:14.908Z,8.47
2019-05-10T06:58:43.999Z,9.60
2019-05-10T07:01:12.946Z,8.57
2019-05-10T07:03:41.849Z,11.63
2019-05-10T07:06:10.780Z,6.37
2019-05-10T07:08:44.582Z,12.53
2019-05-10T07:11:10.586Z,11.27
2019-05-10T07:13:40.499Z,10.80
2019-05-10T07:16:14.541Z,6.70
2019-05-10T07:18:41.005Z,7.27
2019-05-10T07:21:09.929Z,9.43
2019-05-10T07:23:44.270Z,4.83
2019-05-10T07:26:10.055Z,7.17
2019-05-10T07:28:39.019Z,8.43
2019-05-10T07:31:08.988Z,6.17
2019-05-10T07:33:40.083Z,5.27
2019-05-10T07:36:14.641Z,5.57
2019-05-10T07:38:39.563Z,5.33
2019-05-10T07:41:11.745Z,8.17
2019-05-10T07:43:40.787Z,9.73
2019-05-10T07:46:09.864Z,7.17
2019-05-10T07:48:41.013Z,8.13
2019-05-10T07:51:09.579Z,8.03
2019-05-10T07:53:39.745Z,4.77
2019-05-10T07:56:08.900Z,6.83
2019-05-10T07:58:42.803Z,5.33
2019-05-10T08:01:08.514Z,5.70
2019-05-10T08:03:44.365Z,8.20
2019-05-10T08:06:15.194Z,9.60
2019-05-10T08:08:42.791Z,7.00
2019-05-10T08:11:12.983Z,9.17
2019-05-10T08:13:41.919Z,9.97
2019-05-10T08:16:18.891Z,9.20
2019-05-10T08:18:42.421Z,7.87
2019-05-10T08:21:21.709Z,10.17
2019-05-10T08:23:43.908Z,9.97
2019-05-10T08:26:19.818Z,6.37
2019-05-10T08:28:44.648Z,9.57
2019-05-10T08:31:14.351Z,8.87
2019-05-10T08:33:52.515Z,5.67
2019-05-10T08:36:14.296Z,5.73
2019-05-10T08:38:47.166Z,7.80
2019-05-10T08:41:18.197Z,7.07
2019-05-10T08:43:46.102Z,7.60
2019-05-10T08:46:19.374Z,3.80
2019-05-10T08:48:50.372Z,9.73
2019-05-10T08:51:15.968Z,7.40
2019-05-10T08:53:47.064Z,7.27
2019-05-10T08:56:21.065Z,8.17
2019-05-10T08:58:45.901Z,5.43
2019-05-10T09:01:24.233Z,10.53
2019-05-10T09:03:47.249Z,6.80
2019-05-10T09:06:16.833Z,8.47
2019-05-10T09:08:45.971Z,7.70
2019-05-10T09:11:16.407Z,9.70
2019-05-10T09:13:46.273Z,10.20
2019-05-10T09:16:15.622Z,7.40
2019-05-10T09:18:50.294Z,7.67
2019-05-10T09:21:14.944Z,7.47
2019-05-10T09:23:43.755Z,7.47
2019-05-10T09:26:16.449Z,8.00
2019-05-10T09:28:47.702Z,6.73
2019-05-10T09:31:21.622Z,5.30
2019-05-10T09:33:49.524Z,9.63
2019-05-10T09:36:14.682Z,5.50
2019-05-10T09:38:46.227Z,7.70
2019-05-10T09:41:14.021Z,8.40
2019-05-10T09:43:48.665Z,6.93
2019-05-10T09:46:14.291Z,5.37
2019-05-10T09:48:45.094Z,7.27
2019-05-10T09:51:19.192Z,4.13
2019-05-10T09:53:48.560Z,8.83
2019-05-10T09:56:20.941Z,6.20
2019-05-10T09:58:50.229Z,6.10
2019-05-10T10:01:21.749Z,4.50
2019-05-10T10:03:50.458Z,6.77
2019-05-10T10:06:21.049Z,7.37
2019-05-10T10:08:53.332Z,5.60
2019-05-10T10:11:20.889Z,7.27
2019-05-10T10:13:59.034Z,5.43
2019-05-10T10:16:28.047Z,4.90
2019-05-10T10:18:56.714Z,8.47
2019-05-10T10:21:34.639Z,6.60
2019-05-10T10:24:00.025Z,8.27
2019-05-10T10:26:29.333Z,6.57
2019-05-10T10:29:01.487Z,5.67
2019-05-10T10:31:33.614Z,3.77
2019-05-10T10:34:07.550Z,6.30
2019-05-10T10:36:40.117Z,14.17
2019-05-10T10:39:07.487Z,7.40
2019-05-10T10:41:36.674Z,6.63
2019-05-10T10:44:08.236Z,5.20
2019-05-10T10:46:36.519Z,4.67
2019-05-10T10:49:05.870Z,4.45
2019-05-10T10:51:35.016Z,4.60
2019-05-10T10:54:07.391Z,6.75
2019-05-10T10:56:38.538Z,4.30
2019-05-10T10:59:15.124Z,3.70
2019-05-10T11:01:56.615Z,4.25
2019-05-10T11:04:19.800Z,5.55
2019-05-10T11:06:50.114Z,5.67
2019-05-10T11:09:20.626Z,4.25
2019-05-10T11:11:54.841Z,4.92
2019-05-10T11:14:32.016Z,5.35
2019-05-10T11:17:01.061Z,4.85
2019-05-10T11:19:37.045Z,5.50
2019-05-10T11:22:09.736Z,3.52
2019-05-10T11:24:36.557Z,3.87
2019-05-10T11:27:07.185Z,3.95
2019-05-10T11:29:35.996Z,5.33
2019-05-10T11:32:14.651Z,4.58
2019-05-10T11:34:38.956Z,5.40
2019-05-10T11:37:05.969Z,3.92
2019-05-10T11:39:42.138Z,4.40
2019-05-10T11:42:07.345Z,6.37
2019-05-10T11:44:41.470Z,7.33
2019-05-10T11:47:20.938Z,4.42
2019-05-10T11:49:37.311Z,6.60
2019-05-10T11:52:09.894Z,5.03
2019-05-10T11:54:37.059Z,5.83
2019-05-10T11:57:10.002Z,4.97
2019-05-10T11:59:41.234Z,4.45
2019-05-10T12:02:10.343Z,4.62
2019-05-10T12:04:42.994Z,3.08
2019-05-10T12:07:12.975Z,4.90
2019-05-10T12:09:42.563Z,7.40
2019-05-10T12:12:12.462Z,4.35
2019-05-10T12:14:46.147Z,3.42
2019-05-10T12:19:47.946Z,5.17
2019-05-10T12:22:16.136Z,6.53
2019-05-10T12:25:00.348Z,3.00
2019-05-10T12:26:18.786Z,4.78
2019-05-10T12:27:25.508Z,3.77
2019-05-10T12:29:55.427Z,4.53
2019-05-10T12:32:21.164Z,5.13
2019-05-10T12:34:51.888Z,2.40
2019-05-10T12:37:20.279Z,7.57
2019-05-10T12:39:52.940Z,4.40
2019-05-10T12:42:21.856Z,6.97
2019-05-10T12:44:52.696Z,4.80
2019-05-10T12:47:22.139Z,7.13
2019-05-10T12:49:53.907Z,6.27
2019-05-10T12:52:28.340Z,6.35
2019-05-10T12:54:54.279Z,5.60
2019-05-10T12:57:23.492Z,7.72
2019-05-10T12:59:53.349Z,4.22
2019-05-10T13:02:22.727Z,5.10
2019-05-10T13:04:54.207Z,4.00
2019-05-10T13:07:23.800Z,6.60
2019-05-10T13:10:01.360Z,4.87
2019-05-10T13:12:23.757Z,5.47
2019-05-10T13:14:53.219Z,5.58
2019-05-10T13:17:22.739Z,6.97
2019-05-10T13:19:52.739Z,5.20
2019-05-10T13:22:22.585Z,6.97
2019-05-10T13:24:51.586Z,5.78
2019-05-10T13:27:20.977Z,5.80
2019-05-10T13:29:53.329Z,5.67
2019-05-10T13:32:22.419Z,5.28
2019-05-10T13:34:51.887Z,4.75
2019-05-10T13:37:24.773Z,5.63
2019-05-10T13:39:52.476Z,5.12
2019-05-10T13:42:29.494Z,5.03
2019-05-10T13:45:01.545Z,7.05
2019-05-10T13:47:35.775Z,4.22
2019-05-10T13:50:13.228Z,3.77
2019-05-10T13:52:42.450Z,8.85
2019-05-10T13:55:14.748Z,7.10
2019-05-10T14:00:32.971Z,6.78
2019-05-10T14:03:13.557Z,5.97
2019-05-10T14:06:04.505Z,3.52
2019-05-10T14:08:48.006Z,3.50
2019-05-10T14:14:39.377Z,5.37
2019-05-10T14:17:44.698Z,6.50
2019-05-10T14:23:48.852Z,3.45
2019-05-10T14:26:21.463Z,6.05
2019-05-10T14:32:30.570Z,4.53
2019-05-10T14:50:34.045Z,7.37
2019-05-10T14:53:35.931Z,5.85
2019-05-10T15:06:30.881Z,4.53
2019-05-10T15:15:09.346Z,4.20
2019-05-10T15:24:44.858Z,6.55
2019-05-10T15:27:44.743Z,5.90
2019-05-10T15:30:19.990Z,7.00
2019-05-10T15:32:49.140Z,5.47
2019-05-10T15:35:24.278Z,8.58
2019-05-10T15:38:04.553Z,7.33
2019-05-10T15:40:38.809Z,5.67
2019-05-10T15:43:16.828Z,8.40
2019-05-10T15:45:46.112Z,5.08
2019-05-10T15:48:19.875Z,7.10
2019-05-10T15:50:54.343Z,10.58
2019-05-10T15:53:42.598Z,6.47
2019-05-10T15:56:30.319Z,8.43
2019-05-10T15:58:59.572Z,9.75
2019-05-10T16:01:45.673Z,5.15
2019-05-10T16:04:40.244Z,7.15
2019-05-10T16:07:16.590Z,5.17
2019-05-10T16:12:52.240Z,6.92
2019-05-10T16:15:21.477Z,5.33
2019-05-10T16:20:31.594Z,4.75
2019-05-10T16:32:36.295Z,10.63
2019-05-10T16:38:30.917Z,5.50
2019-05-10T16:44:15.029Z,7.47
2019-05-10T20:04:50.329Z,6.73
2019-05-10T21:08:24.646Z,8.30
2019-05-10T21:10:59.818Z,13.63
2019-05-10T21:13:28.808Z,14.27
2019-05-10T21:15:59.720Z,13.13
2019-05-10T21:18:28.667Z,16.80
2019-05-10T21:20:57.595Z,12.57
2019-05-10T21:23:26.587Z,14.70
2019-05-10T21:25:55.503Z,11.97
2019-05-10T21:28:24.683Z,11.83
2019-05-10T21:30:53.865Z,13.67
2019-05-10T21:33:22.804Z,12.00
2019-05-10T21:35:51.876Z,11.53
2019-05-10T21:38:32.695Z,11.70
2019-05-10T21:40:51.639Z,11.50
2019-05-10T21:43:20.617Z,10.30
2019-05-10T21:45:49.554Z,14.73
2019-05-10T21:48:18.588Z,9.77
2019-05-10T21:50:47.825Z,12.33
2019-05-10T21:53:16.996Z,12.93
2019-05-10T21:55:46.162Z,16.30
2019-05-10T21:58:15.388Z,12.57
2019-05-10T22:00:47.096Z,15.10
2019-05-10T22:03:16.702Z,10.17
2019-05-10T22:05:45.905Z,13.37
2019-05-10T22:08:15.068Z,11.77
2019-05-10T22:10:44.189Z,13.10
2019-05-10T22:13:13.494Z,12.90
2019-05-10T22:15:43.444Z,11.67
2019-05-10T22:18:12.717Z,15.50
2019-05-10T22:20:42.196Z,11.27
2019-05-10T22:27:43.475Z,13.93
2019-05-10T22:30:23.649Z,12.27
2019-05-10T22:32:52.996Z,14.50
2019-05-10T22:35:22.077Z,11.50
2019-05-10T22:37:51.264Z,15.53
2019-05-10T22:40:20.468Z,15.10
2019-05-10T22:42:49.595Z,10.40
2019-05-10T22:45:18.987Z,21.50
2019-05-10T22:47:48.265Z,20.13
2019-05-10T22:50:17.890Z,14.43
2019-05-10T22:52:47.047Z,13.60
2019-05-10T22:55:16.168Z,10.90
2019-05-10T22:57:45.310Z,15.50
2019-05-10T23:00:15.400Z,13.13
2019-05-10T23:02:44.555Z,10.93
2019-05-10T23:05:14.460Z,16.30
2019-05-10T23:07:43.462Z,14.47
2019-05-10T23:10:12.655Z,13.13
2019-05-10T23:12:41.750Z,11.23
2019-05-10T23:15:11.065Z,15.97
2019-05-10T23:17:40.178Z,14.53
2019-05-10T23:20:09.455Z,11.77
2019-05-10T23:22:41.436Z,11.00
2019-05-10T23:25:10.825Z,10.20
2019-05-10T23:27:42.500Z,14.10
2019-05-10T23:30:12.008Z,10.50
2019-05-10T23:32:41.459Z,11.87
2019-05-10T23:35:10.758Z,13.70
2019-05-10T23:37:39.708Z,12.13
2019-05-10T23:40:09.668Z,13.67
2019-05-10T23:42:38.923Z,11.07
2019-05-10T23:45:08.956Z,12.33
2019-05-10T23:47:39.344Z,10.93
2019-05-10T23:50:09.305Z,11.73
2019-05-10T23:52:38.869Z,12.30
2019-05-10T23:55:09.599Z,16.87
2019-05-10T23:57:39.248Z,9.67
